Time;durP1;ratioP1;P1;durP2;ratioP2;P2;SDS_P1;SDS_P2;PMS_P1;PMS_P2;Temp;Humidity;BMP_temperature;BMP_pressure;BME280_temperature;BME280_humidity;BME280_pressure;Samples;Min_cycle;Max_cycle;Signal;HPM_P1;HPM_P2
2022/05/25 00:01:00;;;;;;;;;;;;;;;16.19;48.10;100258.81;4940145;28;123244;-70
2022/05/25 00:03:26;;;;;;;;;;;;;;;16.14;47.90;100253.50;4940620;28;98139;-63
2022/05/25 00:05:52;;;;;;;;;;;;;;;16.08;48.47;100252.84;4954848;28;98227;-70
2022/05/25 00:08:18;;;;;;;;;;;;;;;16.04;48.03;100267.38;4940414;28;126997;-63
2022/05/25 00:10:44;;;;;;;;;;;;;;;15.97;48.55;100261.56;4940539;28;121305;-70
2022/05/25 00:13:10;;;;;;;;;;;;;;;15.90;48.31;100264.69;4953604;28;99162;-63
2022/05/25 00:15:36;;;;;;;;;;;;;;;15.84;48.66;100265.94;4959111;28;127640;-62
2022/05/25 00:18:02;;;;;;;;;;;;;;;15.80;48.68;100267.63;4958199;28;127991;-63
2022/05/25 00:20:28;;;;;;;;;;;;;;;15.73;49.08;100272.72;4959705;28;121681;-62
2022/05/25 00:22:55;;;;;;;;;;;;;;;15.66;49.07;100267.69;4951325;28;127980;-62
2022/05/25 00:25:29;;;;;;;;;;;;;;;15.63;49.03;100273.69;4940388;28;104573;-63
2022/05/25 00:27:55;;;;;;;;;;;;;;;15.58;49.04;100274.63;4948224;28;98389;-62
2022/05/25 00:30:21;;;;;;;;;;;;;;;15.55;49.40;100286.09;4959601;28;121939;-62
2022/05/25 00:32:47;;;;;;;;;;;;;;;15.50;49.50;100285.41;4950340;28;125082;-65
2022/05/25 00:35:15;;;;;;;;;;;;;;;15.45;49.43;100289.03;4939825;28;129024;-65
2022/05/25 00:37:41;;;;;;;;;;;;;;;15.41;49.46;100290.75;4949621;28;101810;-71
2022/05/25 00:40:09;;;;;;;;;;;;;;;15.37;49.38;100293.25;4944068;28;119705;-70
2022/05/25 00:42:38;;;;;;;;;;;;;;;15.36;49.44;100296.25;4938801;28;100264;-70
2022/05/25 00:45:05;;;;;;;;;;;;;;;15.32;49.68;100293.34;4943201;28;98687;-70
2022/05/25 00:47:31;;;;;;;;;;;;;;;15.29;49.20;100293.97;4940709;28;99676;-70
2022/05/25 00:49:57;;;;;;;;;;;;;;;15.26;49.43;100297.28;4962689;27;120434;-65
2022/05/25 00:52:23;;;;;;;;;;;;;;;15.22;49.55;100301.72;4953657;28;100520;-62
2022/05/25 00:54:54;;;;;;;;;;;;;;;15.14;50.07;100291.56;4959211;28;98461;-63
2022/05/25 00:57:22;;;;;;;;;;;;;;;15.10;49.70;100290.56;4957674;28;98631;-70
2022/05/25 01:00:27;;;;;;;;;;;;;;;15.08;49.83;100292.75;4957847;28;97909;-70
2022/05/25 01:03:08;;;;;;;;;;;;;;;15.05;49.84;100298.78;4947583;28;108646;-62
2022/05/25 01:05:45;;;;;;;;;;;;;;;15.02;50.14;100297.50;4952844;28;98596;-63
2022/05/25 01:08:32;;;;;;;;;;;;;;;15.00;50.06;100307.03;4947397;28;128338;-63
2022/05/25 01:11:08;;;;;;;;;;;;;;;14.98;49.92;100313.56;4946075;28;120813;-70
2022/05/25 01:13:58;;;;;;;;;;;;;;;14.95;49.96;100314.16;4954835;28;98586;-62
2022/05/25 01:16:38;;;;;;;;;;;;;;;14.96;50.24;100320.38;4938204;28;98373;-70
2022/05/25 01:19:28;;;;;;;;;;;;;;;14.95;50.26;100318.78;4947028;28;120572;-63
2022/05/25 01:22:29;;;;;;;;;;;;;;;14.92;50.27;100322.09;4940260;28;97823;-69
2022/05/25 01:25:17;;;;;;;;;;;;;;;14.88;50.41;100321.09;4944920;28;98422;-63
2022/05/25 01:27:45;;;;;;;;;;;;;;;14.86;50.47;100317.88;4957908;28;98323;-70
2022/05/25 01:30:18;;;;;;;;;;;;;;;14.82;50.59;100319.59;4938115;28;98484;-64
2022/05/25 01:33:05;;;;;;;;;;;;;;;14.78;50.60;100311.22;4954851;28;98007;-70
2022/05/25 01:36:02;;;;;;;;;;;;;;;14.73;50.71;100319.44;4954246;28;98378;-71
2022/05/25 01:38:41;;;;;;;;;;;;;;;14.67;50.77;100324.16;4942346;28;98644;-70
2022/05/25 01:41:28;;;;;;;;;;;;;;;14.61;50.80;100319.13;4943989;28;120547;-70
2022/05/25 01:43:58;;;;;;;;;;;;;;;14.55;50.97;100318.41;4937344;28;119945;-70
2022/05/25 01:46:27;;;;;;;;;;;;;;;14.52;51.09;100318.19;4955044;28;98251;-62
2022/05/25 01:48:54;;;;;;;;;;;;;;;14.49;50.80;100319.59;4941146;28;98601;-70
2022/05/25 01:51:24;;;;;;;;;;;;;;;14.45;51.17;100321.25;4955726;28;98349;-62
2022/05/25 01:53:53;;;;;;;;;;;;;;;14.38;51.13;100315.41;4957498;28;97957;-70
2022/05/25 01:56:19;;;;;;;;;;;;;;;14.30;51.50;100325.00;4956788;28;124863;-72
2022/05/25 01:58:47;;;;;;;;;;;;;;;14.24;51.14;100323.50;4940638;28;112368;-70
2022/05/25 02:01:14;;;;;;;;;;;;;;;14.18;51.34;100322.75;4952210;28;115493;-70
2022/05/25 02:06:33;;;;;;;;;;;;;;;14.16;51.22;100332.28;4939774;28;98147;-63
2022/05/25 02:09:17;;;;;;;;;;;;;;;14.17;51.22;100333.91;4940081;28;98198;-62
2022/05/25 02:11:47;;;;;;;;;;;;;;;14.18;51.43;100336.31;4945254;28;97790;-65
2022/05/25 02:14:38;;;;;;;;;;;;;;;14.19;51.56;100334.41;4940694;28;119824;-63
2022/05/25 02:17:10;;;;;;;;;;;;;;;14.18;51.46;100330.88;4959509;28;98327;-62
2022/05/25 02:19:41;;;;;;;;;;;;;;;14.25;51.37;100333.22;4955245;28;105502;-63
2022/05/25 02:22:09;;;;;;;;;;;;;;;14.36;51.20;100323.03;4952633;28;104091;-62
2022/05/25 02:24:43;;;;;;;;;;;;;;;14.44;51.30;100325.88;4941042;28;97866;-69
2022/05/25 02:27:22;;;;;;;;;;;;;;;14.50;51.15;100326.63;4939735;28;98516;-62
2022/05/25 02:29:49;;;;;;;;;;;;;;;14.54;51.38;100324.94;4956509;28;99085;-62
2022/05/25 02:32:32;;;;;;;;;;;;;;;14.55;51.37;100323.84;4947206;28;98004;-62
2022/05/25 02:34:58;;;;;;;;;;;;;;;14.55;51.20;100328.47;4953103;28;98333;-62
2022/05/25 02:37:25;;;;;;;;;;;;;;;14.55;51.15;100337.41;4938836;28;119719;-70
2022/05/25 02:39:54;;;;;;;;;;;;;;;14.57;51.30;100337.88;4921317;28;98674;-70
2022/05/25 02:42:20;;;;;;;;;;;;;;;14.59;50.96;100337.63;4948593;28;98492;-63
2022/05/25 02:44:46;;;;;;;;;;;;;;;14.58;51.18;100344.94;4958217;28;123786;-62
2022/05/25 02:47:12;;;;;;;;;;;;;;;14.57;51.44;100343.31;4958715;28;127389;-70
2022/05/25 02:49:38;;;;;;;;;;;;;;;14.56;51.08;100338.19;4957175;28;113613;-69
2022/05/25 02:52:05;;;;;;;;;;;;;;;14.55;51.44;100333.88;4949772;28;124530;-62
2022/05/25 02:54:30;;;;;;;;;;;;;;;14.55;51.74;100339.31;4938040;28;112617;-62
2022/05/25 02:56:56;;;;;;;;;;;;;;;14.49;51.49;100338.56;4940735;28;128056;-71
2022/05/25 02:59:22;;;;;;;;;;;;;;;14.46;51.81;100344.53;4940571;28;127535;-70
2022/05/25 03:01:48;;;;;;;;;;;;;;;14.43;51.59;100343.25;4941461;28;125650;-70
2022/05/25 03:04:14;;;;;;;;;;;;;;;14.40;51.82;100343.84;4941641;28;123685;-70
2022/05/25 03:06:40;;;;;;;;;;;;;;;14.38;51.88;100335.22;4941247;28;128774;-71
2022/05/25 03:09:06;;;;;;;;;;;;;;;14.38;52.03;100342.50;4941236;28;127312;-63
2022/05/25 03:11:32;;;;;;;;;;;;;;;14.38;52.02;100335.22;4941377;28;126617;-70
2022/05/25 03:13:58;;;;;;;;;;;;;;;14.39;51.71;100336.00;4959684;28;100887;-70
2022/05/25 03:16:24;;;;;;;;;;;;;;;14.40;51.87;100335.69;4955240;28;98329;-63
2022/05/25 03:18:53;;;;;;;;;;;;;;;14.41;51.63;100333.78;4940666;28;108400;-62
2022/05/25 03:21:19;;;;;;;;;;;;;;;14.39;52.03;100339.53;4956107;28;98339;-62
2022/05/25 03:23:45;;;;;;;;;;;;;;;14.37;51.85;100347.13;4959113;28;121246;-70
2022/05/25 03:26:12;;;;;;;;;;;;;;;14.33;51.86;100346.13;4961201;28;118278;-63
2022/05/25 03:28:38;;;;;;;;;;;;;;;14.32;51.86;100349.13;4961228;28;99198;-70
2022/05/25 03:31:04;;;;;;;;;;;;;;;14.32;52.11;100343.72;4961743;28;105164;-62
2022/05/25 03:33:31;;;;;;;;;;;;;;;14.31;52.08;100345.63;4943433;28;99197;-62
2022/05/25 03:35:57;;;;;;;;;;;;;;;14.28;52.35;100354.34;4941187;28;117102;-70
2022/05/25 03:38:23;;;;;;;;;;;;;;;14.26;52.32;100356.50;4940934;28;128079;-71
2022/05/25 03:40:49;;;;;;;;;;;;;;;14.27;52.20;100360.06;4939508;28;98069;-65
2022/05/25 03:43:16;;;;;;;;;;;;;;;14.27;52.08;100363.56;4971514;28;107796;-71
2022/05/25 03:45:42;;;;;;;;;;;;;;;14.31;51.93;100364.59;4946308;28;98548;-62
2022/05/25 03:48:08;;;;;;;;;;;;;;;14.34;51.97;100368.59;4948719;28;127421;-63
2022/05/25 03:50:35;;;;;;;;;;;;;;;14.38;51.91;100366.91;4941623;28;97830;-70
2022/05/25 03:53:01;;;;;;;;;;;;;;;14.40;51.93;100372.88;4953337;28;97866;-63
2022/05/25 03:55:27;;;;;;;;;;;;;;;14.43;52.21;100380.41;4948235;28;98565;-63
2022/05/25 03:57:53;;;;;;;;;;;;;;;14.44;52.13;100374.69;4948547;28;126776;-71
2022/05/25 04:00:19;;;;;;;;;;;;;;;14.47;52.29;100382.25;4959401;28;119929;-71
2022/05/25 04:02:45;;;;;;;;;;;;;;;14.48;52.15;100383.03;4958762;28;97820;-71
2022/05/25 04:05:12;;;;;;;;;;;;;;;14.49;52.08;100390.09;4958025;28;128111;-70
2022/05/25 04:07:43;;;;;;;;;;;;;;;14.51;51.83;100387.09;4954414;28;99069;-71
2022/05/25 04:10:12;;;;;;;;;;;;;;;14.58;51.73;100376.66;4940651;28;124121;-63
2022/05/25 04:12:40;;;;;;;;;;;;;;;14.66;51.68;100381.44;4951182;28;98225;-71
2022/05/25 04:15:06;;;;;;;;;;;;;;;14.76;51.73;100383.16;4960841;28;98364;-71
2022/05/25 04:17:33;;;;;;;;;;;;;;;14.83;51.59;100389.81;4961648;28;98307;-63
2022/05/25 04:19:59;;;;;;;;;;;;;;;14.92;51.67;100390.75;4958417;28;99296;-72
2022/05/25 04:22:25;;;;;;;;;;;;;;;15.01;51.61;100384.63;4955270;28;98092;-64
2022/05/25 04:24:51;;;;;;;;;;;;;;;15.09;51.57;100384.78;4959666;28;98910;-71
2022/05/25 04:27:17;;;;;;;;;;;;;;;15.17;51.16;100383.28;4957405;28;98720;-73
2022/05/25 04:29:43;;;;;;;;;;;;;;;15.28;51.21;100390.09;4938693;28;124199;-72
2022/05/25 04:32:09;;;;;;;;;;;;;;;15.39;50.92;100388.81;4938902;28;123615;-64
2022/05/25 04:34:35;;;;;;;;;;;;;;;15.54;50.77;100387.72;4938781;28;128085;-64
2022/05/25 04:37:48;;;;;;;;;;;;;;;15.68;50.56;100383.13;4935408;28;128851;-64
2022/05/25 04:39:50;;;;;;;;;;;;;;;15.82;50.70;100385.00;4948491;28;98634;-67
2022/05/25 04:42:16;;;;;;;;;;;;;;;15.89;50.24;100393.56;4938585;28;122545;-64
2022/05/25 04:44:41;;;;;;;;;;;;;;;15.94;50.47;100391.53;4937394;28;119347;-73
2022/05/25 04:47:10;;;;;;;;;;;;;;;15.99;50.38;100395.22;4936474;28;129070;-73
2022/05/25 04:49:41;;;;;;;;;;;;;;;16.02;50.48;100400.88;4934083;28;112324;-72
2022/05/25 04:52:07;;;;;;;;;;;;;;;16.06;50.42;100401.88;4940256;28;98220;-64
2022/05/25 04:54:33;;;;;;;;;;;;;;;16.13;50.38;100410.41;4937159;28;127951;-73
2022/05/25 04:57:41;;;;;;;;;;;;;;;16.18;50.45;100414.94;4936152;28;128010;-64
2022/05/25 04:59:49;;;;;;;;;;;;;;;16.23;50.10;100411.28;4935741;28;97934;-73
2022/05/25 05:02:15;;;;;;;;;;;;;;;16.25;50.16;100412.59;4938868;28;97800;-72
2022/05/25 05:04:41;;;;;;;;;;;;;;;16.29;50.06;100415.53;4950416;28;99667;-64
2022/05/25 05:07:07;;;;;;;;;;;;;;;16.35;49.86;100415.09;4938215;28;119963;-64
2022/05/25 05:09:34;;;;;;;;;;;;;;;16.43;49.98;100419.00;4936400;28;97974;-72
2022/05/25 05:11:59;;;;;;;;;;;;;;;16.50;49.94;100424.00;4939841;28;120828;-64
2022/05/25 05:14:25;;;;;;;;;;;;;;;16.61;49.78;100426.19;4938149;28;127276;-72
2022/05/25 05:16:56;;;;;;;;;;;;;;;16.78;49.52;100428.28;4936740;28;128183;-64
2022/05/25 05:19:22;;;;;;;;;;;;;;;17.04;49.28;100422.97;4936569;28;98072;-64
2022/05/25 05:21:48;;;;;;;;;;;;;;;17.32;48.94;100433.72;4936516;28;98129;-71
2022/05/25 05:24:13;;;;;;;;;;;;;;;17.57;48.62;100429.50;4940807;28;129213;-62
2022/05/25 05:26:39;;;;;;;;;;;;;;;17.86;48.27;100434.44;4935902;28;128692;-71
2022/05/25 05:29:05;;;;;;;;;;;;;;;17.97;48.14;100443.13;4933680;28;127644;-72
2022/05/25 05:31:31;;;;;;;;;;;;;;;17.94;48.36;100435.56;4934012;28;121517;-71
2022/05/25 05:33:57;;;;;;;;;;;;;;;17.86;48.18;100435.22;4940750;28;127188;-64
2022/05/25 05:36:27;;;;;;;;;;;;;;;17.83;48.36;100440.50;4917011;28;127301;-62
2022/05/25 05:39:03;;;;;;;;;;;;;;;17.82;48.34;100445.16;4916894;28;100155;-65
2022/05/25 05:41:35;;;;;;;;;;;;;;;17.88;48.05;100448.53;4935500;28;117904;-63
2022/05/25 05:44:00;;;;;;;;;;;;;;;17.95;48.02;100448.88;4933523;28;123900;-72
2022/05/25 05:46:27;;;;;;;;;;;;;;;18.02;47.81;100451.94;4939813;28;108384;-72
2022/05/25 05:48:53;;;;;;;;;;;;;;;18.08;47.79;100458.06;4935626;28;98251;-64
2022/05/25 05:51:19;;;;;;;;;;;;;;;18.11;47.82;100449.25;4933635;28;121466;-72
2022/05/25 05:53:45;;;;;;;;;;;;;;;18.19;47.64;100450.38;4923713;28;127792;-64
2022/05/25 05:56:11;;;;;;;;;;;;;;;18.28;47.63;100465.66;4952542;28;111868;-63
2022/05/25 05:58:37;;;;;;;;;;;;;;;18.37;47.31;100462.94;4939669;28;98635;-71
2022/05/25 06:01:03;;;;;;;;;;;;;;;18.45;47.42;100462.13;4935568;28;120915;-64
2022/05/25 06:03:29;;;;;;;;;;;;;;;18.51;47.36;100465.50;4934782;28;127761;-64
2022/05/25 06:05:55;;;;;;;;;;;;;;;18.59;47.07;100462.78;4938922;28;99039;-64
2022/05/25 06:08:23;;;;;;;;;;;;;;;18.68;46.96;100472.91;4941692;28;98416;-71
2022/05/25 06:10:49;;;;;;;;;;;;;;;18.79;46.82;100485.94;4936292;28;98033;-65
2022/05/25 06:13:15;;;;;;;;;;;;;;;18.81;46.99;100485.59;4935987;28;124500;-72
2022/05/25 06:21:16;;;;;;;;;;;;;;;19.07;46.59;100483.66;4935985;28;98115;-72
2022/05/25 06:23:42;;;;;;;;;;;;;;;19.24;46.32;100487.47;4936393;28;98650;-71
2022/05/25 06:26:08;;;;;;;;;;;;;;;19.30;46.40;100481.53;4934434;28;127002;-72
2022/05/25 06:28:34;;;;;;;;;;;;;;;19.40;46.34;100485.84;4940862;28;98112;-72
2022/05/25 06:31:00;;;;;;;;;;;;;;;19.48;46.23;100481.47;4936491;28;112491;-72
2022/05/25 06:33:26;;;;;;;;;;;;;;;19.54;45.93;100483.72;4942463;28;128485;-64
2022/05/25 06:35:52;;;;;;;;;;;;;;;19.64;45.89;100484.50;4939294;28;98513;-71
2022/05/25 06:38:18;;;;;;;;;;;;;;;19.75;45.66;100493.94;4939252;28;98044;-72
2022/05/25 06:40:44;;;;;;;;;;;;;;;19.92;45.28;100499.34;4938692;28;122972;-64
2022/05/25 06:43:10;;;;;;;;;;;;;;;20.05;45.24;100501.06;4938391;28;100876;-64
2022/05/25 06:45:36;;;;;;;;;;;;;;;20.15;45.23;100504.53;4940633;28;124093;-71
2022/05/25 06:48:02;;;;;;;;;;;;;;;20.18;45.20;100504.69;4938195;28;119002;-64
2022/05/25 06:50:28;;;;;;;;;;;;;;;20.16;45.26;100509.69;4944729;28;97892;-64
2022/05/25 06:52:54;;;;;;;;;;;;;;;20.17;45.19;100513.22;4941807;28;98255;-64
2022/05/25 06:55:20;;;;;;;;;;;;;;;20.23;45.09;100520.91;4939600;28;128265;-71
2022/05/25 06:57:46;;;;;;;;;;;;;;;20.43;44.90;100522.06;4934843;28;127839;-71
2022/05/25 07:00:12;;;;;;;;;;;;;;;20.75;44.36;100526.06;4956925;28;97938;-72
2022/05/25 07:02:38;;;;;;;;;;;;;;;21.02;43.87;100530.19;4947968;28;122625;-64
2022/05/25 07:05:05;;;;;;;;;;;;;;;21.30;43.58;100537.84;4944885;28;106503;-71
2022/05/25 07:07:31;;;;;;;;;;;;;;;21.57;43.18;100530.94;4944576;28;121068;-71
2022/05/25 07:09:57;;;;;;;;;;;;;;;21.52;42.91;100525.69;4937591;28;98367;-71
2022/05/25 07:12:23;;;;;;;;;;;;;;;21.48;42.90;100527.50;4939336;28;98617;-63
2022/05/25 07:14:49;;;;;;;;;;;;;;;21.50;43.01;100528.78;4942211;28;128357;-64
2022/05/25 07:17:15;;;;;;;;;;;;;;;21.43;43.10;100533.22;4937446;28;120976;-64
2022/05/25 07:19:41;;;;;;;;;;;;;;;21.16;43.39;100545.53;4941143;28;124220;-63
2022/05/25 07:22:08;;;;;;;;;;;;;;;20.89;43.71;100538.69;4939154;28;128304;-71
2022/05/25 07:24:34;;;;;;;;;;;;;;;20.69;43.75;100543.03;4937582;28;99087;-63
2022/05/25 07:27:00;;;;;;;;;;;;;;;20.59;44.00;100541.47;4938497;28;98424;-71
2022/05/25 07:29:26;;;;;;;;;;;;;;;20.56;44.07;100544.91;4938043;28;122126;-64
2022/05/25 07:31:55;;;;;;;;;;;;;;;20.63;43.76;100547.09;4940747;28;127373;-64
2022/05/25 07:34:25;;;;;;;;;;;;;;;20.66;43.74;100555.44;4937457;28;98417;-71
2022/05/25 07:36:56;;;;;;;;;;;;;;;20.61;43.58;100544.69;4944233;28;99462;-71
2022/05/25 07:39:23;;;;;;;;;;;;;;;20.49;43.73;100558.31;4934172;28;112160;-63
2022/05/25 07:41:51;;;;;;;;;;;;;;;20.43;44.10;100548.63;4936091;28;125585;-63
2022/05/25 07:44:23;;;;;;;;;;;;;;;20.41;44.04;100548.19;4937057;28;99504;-71
2022/05/25 07:46:49;;;;;;;;;;;;;;;20.41;44.18;100548.97;4938557;28;108621;-67
2022/05/25 07:49:15;;;;;;;;;;;;;;;20.45;44.09;100565.53;4942217;28;98235;-63
2022/05/25 07:51:41;;;;;;;;;;;;;;;20.58;43.86;100564.50;4951529;28;99026;-71
2022/05/25 07:54:09;;;;;;;;;;;;;;;20.84;43.57;100562.41;4936927;28;128190;-63
2022/05/25 07:56:35;;;;;;;;;;;;;;;21.05;43.37;100565.13;4937382;28;98694;-63
2022/05/25 07:59:02;;;;;;;;;;;;;;;21.19;43.25;100562.13;4945086;28;97748;-71
2022/05/25 08:06:59;;;;;;;;;;;;;;;21.08;43.21;100572.69;4933179;28;98034;-63
2022/05/25 08:09:26;;;;;;;;;;;;;;;21.18;42.99;100576.16;4937116;28;118492;-71
2022/05/25 08:11:52;;;;;;;;;;;;;;;21.27;42.82;100574.16;4944901;28;98766;-64
2022/05/25 08:14:18;;;;;;;;;;;;;;;21.36;42.77;100572.16;4954652;28;128138;-71
2022/05/25 08:16:44;;;;;;;;;;;;;;;21.44;42.64;100578.69;4933131;28;126584;-69
2022/05/25 08:19:09;;;;;;;;;;;;;;;21.45;42.72;100577.53;4936294;28;122276;-63
2022/05/25 08:21:35;;;;;;;;;;;;;;;21.43;42.77;100585.31;4937224;28;98594;-69
2022/05/25 08:24:01;;;;;;;;;;;;;;;21.36;42.48;100583.09;4937474;28;127548;-70
2022/05/25 08:26:27;;;;;;;;;;;;;;;21.27;42.59;100585.91;4935487;28;127131;-70
2022/05/25 08:28:53;;;;;;;;;;;;;;;21.21;42.59;100589.19;4950949;28;123339;-70
2022/05/25 08:31:19;;;;;;;;;;;;;;;21.27;42.54;100582.38;4936466;28;127852;-62
2022/05/25 08:33:45;;;;;;;;;;;;;;;21.45;42.32;100585.75;4938089;28;98217;-70
2022/05/25 08:36:11;;;;;;;;;;;;;;;21.65;42.24;100589.59;4934206;28;127815;-62
2022/05/25 08:38:37;;;;;;;;;;;;;;;21.77;41.96;100586.88;4936984;28;121735;-70
2022/05/25 08:41:03;;;;;;;;;;;;;;;21.81;41.74;100593.28;4934984;28;127331;-62
2022/05/25 08:43:43;;;;;;;;;;;;;;;21.84;41.59;100595.34;4919008;28;128304;-62
2022/05/25 08:46:13;;;;;;;;;;;;;;;21.87;41.54;100594.69;4933722;28;106841;-70
2022/05/25 08:48:40;;;;;;;;;;;;;;;21.91;41.46;100594.81;4922932;28;97918;-70
2022/05/25 08:51:16;;;;;;;;;;;;;;;22.04;41.53;100594.47;4936355;28;115085;-70
2022/05/25 08:53:42;;;;;;;;;;;;;;;22.22;41.23;100594.28;4937493;28;111784;-70
2022/05/25 08:56:15;;;;;;;;;;;;;;;22.39;41.02;100591.31;4933050;28;127820;-70
2022/05/25 08:58:57;;;;;;;;;;;;;;;22.55;40.93;100589.47;4955195;28;122717;-62
2022/05/25 09:01:29;;;;;;;;;;;;;;;22.71;40.74;100597.00;4933796;28;119739;-66
2022/05/25 09:04:05;;;;;;;;;;;;;;;22.79;40.80;100596.06;4926478;28;120856;-63
2022/05/25 09:06:33;;;;;;;;;;;;;;;22.82;40.57;100589.09;4935936;28;123107;-70
2022/05/25 09:09:05;;;;;;;;;;;;;;;22.79;40.45;100585.91;4950899;28;106126;-63
2022/05/25 09:11:39;;;;;;;;;;;;;;;22.78;40.65;100591.72;4937048;28;99110;-70
2022/05/25 09:14:25;;;;;;;;;;;;;;;22.72;40.57;100591.19;4922768;28;115708;-70
2022/05/25 09:16:52;;;;;;;;;;;;;;;22.65;40.31;100588.22;4936578;28;103653;-62
2022/05/25 09:19:24;;;;;;;;;;;;;;;22.57;40.49;100585.59;4936365;28;122842;-62
2022/05/25 09:22:01;;;;;;;;;;;;;;;22.46;40.57;100601.72;4919129;28;99425;-70
2022/05/25 09:24:27;;;;;;;;;;;;;;;22.41;40.78;100599.22;4950922;28;98835;-62
2022/05/25 09:26:53;;;;;;;;;;;;;;;22.36;40.73;100599.44;4917073;28;128496;-63
2022/05/25 09:29:20;;;;;;;;;;;;;;;22.27;40.66;100608.59;4918205;28;97951;-63
2022/05/25 09:31:53;;;;;;;;;;;;;;;22.23;40.80;100606.88;4937093;28;99409;-63
2022/05/25 09:34:35;;;;;;;;;;;;;;;22.20;40.82;100608.34;4937793;28;99084;-70
2022/05/25 09:37:13;;;;;;;;;;;;;;;22.18;40.65;100602.41;4922287;28;98388;-70
2022/05/25 09:39:42;;;;;;;;;;;;;;;22.16;40.72;100601.16;4939627;28;98023;-63
2022/05/25 09:42:12;;;;;;;;;;;;;;;22.16;40.63;100598.41;4935591;28;110067;-62
2022/05/25 09:44:38;;;;;;;;;;;;;;;22.16;40.70;100601.16;4934356;28;128086;-71
2022/05/25 09:47:08;;;;;;;;;;;;;;;22.20;40.74;100596.56;4936790;28;114549;-62
2022/05/25 09:49:43;;;;;;;;;;;;;;;22.28;40.53;100604.72;4932556;28;98016;-62
2022/05/25 09:52:20;;;;;;;;;;;;;;;22.36;40.40;100605.75;4934264;28;99231;-62
2022/05/25 09:54:49;;;;;;;;;;;;;;;22.46;40.44;100604.47;4939509;28;103737;-69
2022/05/25 09:57:31;;;;;;;;;;;;;;;22.58;39.88;100603.66;4916986;28;123080;-70
2022/05/25 10:00:03;;;;;;;;;;;;;;;22.55;39.68;100602.41;4934400;28;98208;-63
2022/05/25 10:02:41;;;;;;;;;;;;;;;22.77;39.52;100601.91;4917843;28;98583;-64
2022/05/25 10:05:19;;;;;;;;;;;;;;;23.84;38.30;100595.13;4952646;28;123013;-70
2022/05/25 10:08:00;;;;;;;;;;;;;;;24.56;37.15;100604.00;4934000;28;98140;-62
2022/05/25 10:10:33;;;;;;;;;;;;;;;25.58;35.52;100598.28;4934803;28;98039;-62
2022/05/25 10:13:03;;;;;;;;;;;;;;;25.45;35.97;100594.88;4938652;28;99049;-62
2022/05/25 10:15:38;;;;;;;;;;;;;;;25.45;35.76;100588.56;4936306;28;98948;-63
2022/05/25 10:18:05;;;;;;;;;;;;;;;25.38;35.33;100586.47;4933745;28;126538;-62
2022/05/25 10:20:46;;;;;;;;;;;;;;;25.22;35.37;100599.53;4935940;28;98028;-70
2022/05/25 10:23:13;;;;;;;;;;;;;;;25.25;35.34;100598.03;4936135;28;99269;-62
2022/05/25 10:25:42;;;;;;;;;;;;;;;26.74;33.66;100596.28;4954026;28;98335;-70
2022/05/25 10:28:29;;;;;;;;;;;;;;;28.04;32.40;100591.84;4938030;28;124976;-62
2022/05/25 10:36:45;;;;;;;;;;;;;;;31.52;28.63;100606.72;4931632;28;98233;-63
2022/05/25 10:37:06;;;;;;;;;;;;;;;32.94;27.67;100594.78;4939414;28;98902;-63
2022/05/25 10:39:33;;;;;;;;;;;;;;;32.51;28.33;100600.81;4934818;28;98718;-70
2022/05/25 10:42:29;;;;;;;;;;;;;;;34.41;26.50;100602.56;4936138;28;97968;-71
2022/05/25 10:45:03;;;;;;;;;;;;;;;34.89;26.24;100594.88;4935736;28;99492;-63
2022/05/25 10:47:49;;;;;;;;;;;;;;;36.81;24.36;100586.63;4943917;28;118525;-71
2022/05/25 10:50:32;;;;;;;;;;;;;;;38.26;23.19;100592.97;4933671;28;98618;-63
2022/05/25 10:53:18;;;;;;;;;;;;;;;39.19;22.71;100583.97;4936109;28;98228;-70
2022/05/25 10:56:10;;;;;;;;;;;;;;;40.07;21.84;100581.63;4933536;28;127157;-63
2022/05/25 10:59:08;;;;;;;;;;;;;;;40.93;20.63;100569.38;4940962;28;99019;-63
2022/05/25 11:01:59;;;;;;;;;;;;;;;41.50;19.74;100561.00;4918189;28;98439;-70
2022/05/25 11:04:34;;;;;;;;;;;;;;;40.71;20.30;100556.22;4934660;28;98095;-70
2022/05/25 11:07:22;;;;;;;;;;;;;;;41.40;19.54;100556.69;4954023;28;98175;-70
2022/05/25 11:09:57;;;;;;;;;;;;;;;39.75;20.10;100557.59;4939721;28;98436;-70
2022/05/25 11:12:35;;;;;;;;;;;;;;;37.51;21.36;100544.88;4935721;28;98664;-63
2022/05/25 11:15:22;;;;;;;;;;;;;;;35.98;22.54;100534.00;4934785;28;98098;-70
2022/05/25 11:17:56;;;;;;;;;;;;;;;35.75;22.50;100531.34;4938556;28;98473;-70
2022/05/25 11:20:41;;;;;;;;;;;;;;;36.71;21.59;100542.84;4935529;28;114628;-70
2022/05/25 11:23:28;;;;;;;;;;;;;;;34.46;23.03;100534.13;4935375;28;127073;-70
2022/05/25 11:26:10;;;;;;;;;;;;;;;34.45;22.75;100521.38;4921753;28;97841;-70
2022/05/25 11:28:44;;;;;;;;;;;;;;;36.08;22.07;100524.53;4939024;28;121984;-70
2022/05/25 11:31:43;;;;;;;;;;;;;;;35.42;22.67;100529.31;4963065;28;123593;-62
2022/05/25 11:34:32;;;;;;;;;;;;;;;34.59;22.91;100531.53;4950483;28;98018;-62
2022/05/25 11:37:40;;;;;;;;;;;;;;;33.57;23.94;100524.53;4953504;28;119510;-70
2022/05/25 11:40:13;;;;;;;;;;;;;;;32.67;24.32;100517.34;4937122;28;98500;-63
2022/05/25 11:42:52;;;;;;;;;;;;;;;32.48;24.18;100520.75;4938594;28;98872;-70
2022/05/25 11:45:52;;;;;;;;;;;;;;;32.83;24.19;100525.13;4953509;28;123649;-70
2022/05/25 11:48:34;;;;;;;;;;;;;;;33.06;24.03;100510.47;4939583;28;98020;-70
2022/05/25 11:51:23;;;;;;;;;;;;;;;34.17;22.51;100511.53;4937408;28;97998;-63
2022/05/25 11:53:59;;;;;;;;;;;;;;;35.01;22.21;100495.47;4944234;28;98649;-70
2022/05/25 11:56:56;;;;;;;;;;;;;;;34.49;23.02;100504.53;4937523;28;98182;-63
2022/05/25 11:59:54;;;;;;;;;;;;;;;36.01;21.93;100505.06;4937826;28;97993;-63
2022/05/25 12:03:03;;;;;;;;;;;;;;;36.81;21.42;100510.06;4936822;28;98654;-71
2022/05/25 12:05:47;;;;;;;;;;;;;;;37.58;20.92;100510.91;4953014;28;98413;-63
2022/05/25 12:08:23;;;;;;;;;;;;;;;35.74;21.67;100510.94;4938113;28;98106;-70
2022/05/25 12:11:05;;;;;;;;;;;;;;;33.98;22.74;100492.72;4935601;28;98013;-70
2022/05/25 12:13:46;;;;;;;;;;;;;;;32.83;23.29;100493.63;4933845;28;127960;-70
2022/05/25 12:16:21;;;;;;;;;;;;;;;33.39;22.97;100494.81;4937937;28;127882;-63
2022/05/25 12:19:02;;;;;;;;;;;;;;;35.23;21.49;100502.16;4938537;28;98824;-63
2022/05/25 12:21:38;;;;;;;;;;;;;;;36.18;20.53;100500.22;4951017;28;98277;-63
2022/05/25 12:24:13;;;;;;;;;;;;;;;36.60;20.78;100508.69;4937860;28;98399;-63
2022/05/25 12:26:39;;;;;;;;;;;;;;;36.97;20.57;100489.56;4934700;28;123018;-64
2022/05/25 12:29:20;;;;;;;;;;;;;;;37.39;20.12;100498.66;4932598;28;123463;-63
2022/05/25 12:31:47;;;;;;;;;;;;;;;37.75;20.00;100501.06;4937729;28;97959;-70
2022/05/25 12:34:14;;;;;;;;;;;;;;;38.01;19.45;100499.00;4939388;28;99329;-63
2022/05/25 12:36:41;;;;;;;;;;;;;;;38.18;19.25;100491.16;4943740;28;122948;-71
2022/05/25 12:39:09;;;;;;;;;;;;;;;37.15;19.64;100483.38;4939580;28;98503;-70
2022/05/25 12:41:36;;;;;;;;;;;;;;;35.26;20.51;100464.88;4937651;28;97929;-63
2022/05/25 12:49:42;;;;;;;;;;;;;;;34.81;21.20;100473.09;4936236;28;98138;-63
2022/05/25 12:52:27;;;;;;;;;;;;;;;34.34;21.63;100474.03;4937976;28;97939;-69
2022/05/25 12:55:13;;;;;;;;;;;;;;;33.06;22.47;100473.41;4939622;28;99939;-70
2022/05/25 12:57:47;;;;;;;;;;;;;;;32.04;23.04;100471.44;4942596;28;99681;-63
2022/05/25 13:00:15;;;;;;;;;;;;;;;31.59;23.26;100468.63;4945210;28;98327;-63
2022/05/25 13:02:41;;;;;;;;;;;;;;;31.91;23.13;100471.97;4919248;28;98672;-70
2022/05/25 13:05:08;;;;;;;;;;;;;;;32.69;22.52;100475.84;4934625;28;126848;-70
2022/05/25 13:07:37;;;;;;;;;;;;;;;33.10;22.69;100469.34;4935739;28;98309;-63
2022/05/25 13:10:10;;;;;;;;;;;;;;;33.50;22.09;100475.13;4936410;28;98313;-70
2022/05/25 13:12:39;;;;;;;;;;;;;;;31.85;23.11;100476.38;4934954;28;99829;-70
2022/05/25 13:15:28;;;;;;;;;;;;;;;31.09;23.56;100474.50;4936739;28;98500;-63